Albany International Airport Albany US
ICAO: KALB
IATA: ALB
Category: Medium
Scheduled Services: Yes

Elevation: 285 ft
TransAlt. 18000 ft.

Airport Communications:
APP/DEP:118.05
ATIS:120.45
CLNC DEL:127.5
GND:121.7
ARNG OPS:41
BURLINGTON RDO:122.2
TWR:119.5
UNICOM:122.95

KALB Zoom In..

Runways:

(A) RW 01 length 8500 ft width 150 ft
ILS 109.50 / hdg 11

(B) RW 10 length 7200 ft width 150 ft
---- / hdg 101

(C) RW 19 length 8500 ft width 150 ft
ILS 109.50 / hdg 191

(D) RW 28 length 7200 ft width 150 ft
---- / hdg 281

Location; KALB
Day. 22 / Time. 00.51 Zulu
* Altimeter: 30.32
* Temperature: 09° c. 48.2°f.
* Wind from: 290° Speed 11 kn.
Dewpoint: -08° c.
Visibility: 10 Statute Miles.
Clouds: Few 25000 ft.

KALB 220051Z 29011KT 10SM FEW250 09/M08 A3032 RMK AO2 SLP268 T00941078


Wind From 290°
Speed 11 kn.

  YouTube Music Video
 
jpsmedia.com for Web Design  worldairports.se 2018   terms of use